In Rescue
 
Open Full Screen Window  High Contrast Mode
Wind Gusting 00 knots
08
October 25, 2021 2:16 PM CDT
Weather Information
Wind Direction
  140 °
Wind Speed
  08 kt (9 mph)
Wind Gust
  00 kt (0 mph)
Altimeter
30.12 in
Visibility
10 SM
Temperature
10° C
50° F
Dewpoint
00° C
32° F
Humidity
50%
1hr Rain Fall
00.00 in.
24hr Rain Fall
00.01 in.
Sky Condition
Clear
VFR

METAR KBBB 251916Z AUTO 14008KT 10SM CLR 10/00 A3012 RMK AO2

FAA Disclaimer: The data displayed is for advisory purposes only and is not to be used for flight planning or operations.